Time;durP1;ratioP1;P1;durP2;ratioP2;P2;SDS_P1;SDS_P2;PMS_P1;PMS_P2;Temp;Humidity;BMP_temperature;BMP_pressure;BME280_temperature;BME280_humidity;BME280_pressure;Samples;Min_cycle;Max_cycle;Signal;HPM_P1;HPM_P2
2023/07/19 00:01:21;;;;;;;;;;;;;;;30.43;40.07;100704.16;102691;1294;62278;-81
2023/07/19 00:03:47;;;;;;;;;;;;;;;30.43;40.20;100706.17;102570;1292;62868;-81
2023/07/19 00:06:12;;;;;;;;;;;;;;;30.43;40.17;100707.48;102676;1298;62212;-81
2023/07/19 00:08:38;;;;;;;;;;;;;;;30.43;40.28;100709.44;102701;1295;62314;-81
2023/07/19 00:11:03;;;;;;;;;;;;;;;30.43;40.24;100704.20;102595;1294;62242;-81
2023/07/19 00:13:29;;;;;;;;;;;;;;;30.43;40.32;100706.20;102632;1299;62253;-81
2023/07/19 00:15:54;;;;;;;;;;;;;;;30.43;40.21;100703.12;102730;1295;63386;-81
2023/07/19 00:18:20;;;;;;;;;;;;;;;30.42;40.16;100700.47;102680;1297;66786;-81
2023/07/19 00:20:45;;;;;;;;;;;;;;;30.43;40.09;100700.23;102704;1296;62312;-81
2023/07/19 00:23:11;;;;;;;;;;;;;;;30.43;40.15;100702.05;102686;1294;62302;-81
2023/07/19 00:25:36;;;;;;;;;;;;;;;30.43;40.25;100697.54;102693;1294;62221;-82
2023/07/19 00:28:02;;;;;;;;;;;;;;;30.42;40.07;100702.27;102685;1297;62221;-82
2023/07/19 00:30:27;;;;;;;;;;;;;;;30.42;40.14;100705.40;102610;1294;62261;-82
2023/07/19 00:32:52;;;;;;;;;;;;;;;30.42;40.18;100710.48;102737;1297;63410;-82
2023/07/19 00:35:19;;;;;;;;;;;;;;;30.42;40.16;100705.58;102626;1294;62542;-81
2023/07/19 00:37:44;;;;;;;;;;;;;;;30.42;40.22;100709.39;102718;1297;62302;-81
2023/07/19 00:40:10;;;;;;;;;;;;;;;30.41;40.27;100713.45;102677;1294;62251;-81
2023/07/19 00:42:35;;;;;;;;;;;;;;;30.41;40.24;100717.83;102682;1293;67630;-81
2023/07/19 00:45:00;;;;;;;;;;;;;;;30.41;40.25;100720.19;102651;1296;62222;-81
2023/07/19 00:47:26;;;;;;;;;;;;;;;30.41;40.23;100713.86;102689;1294;62256;-81
2023/07/19 00:49:51;;;;;;;;;;;;;;;30.41;40.07;100719.67;102619;1295;63378;-81
2023/07/19 00:52:17;;;;;;;;;;;;;;;30.41;40.20;100716.59;102674;1293;62218;-81
2023/07/19 00:54:42;;;;;;;;;;;;;;;30.41;40.21;100719.89;102665;1296;62206;-81
2023/07/19 00:57:08;;;;;;;;;;;;;;;30.41;40.07;100719.86;102680;1294;62290;-81
2023/07/19 00:59:33;;;;;;;;;;;;;;;30.41;40.11;100724.04;102627;1294;63466;-81
2023/07/19 01:01:58;;;;;;;;;;;;;;;30.41;40.15;100721.48;102707;1294;62086;-81
2023/07/19 01:04:29;;;;;;;;;;;;;;;30.41;40.24;100719.73;102638;1295;64568;-81
2023/07/19 01:06:54;;;;;;;;;;;;;;;30.41;40.18;100717.38;102677;1294;67616;-81
2023/07/19 01:09:20;;;;;;;;;;;;;;;30.41;40.18;100705.05;102572;1293;63410;-81
2023/07/19 01:11:45;;;;;;;;;;;;;;;30.40;40.15;100701.98;102651;1294;63462;-81
2023/07/19 01:14:12;;;;;;;;;;;;;;;30.41;40.14;100696.67;102696;1296;62208;-80
2023/07/19 01:16:37;;;;;;;;;;;;;;;30.40;40.22;100692.73;102628;1294;62200;-81
2023/07/19 01:19:02;;;;;;;;;;;;;;;30.40;40.24;100689.86;102619;1294;63473;-81
2023/07/19 01:21:28;;;;;;;;;;;;;;;30.40;40.20;100690.75;102582;1294;62222;-81
2023/07/19 01:23:54;;;;;;;;;;;;;;;30.39;40.24;100688.09;102650;1294;62280;-81
2023/07/19 01:26:19;;;;;;;;;;;;;;;30.40;40.18;100685.13;102652;1293;63394;-81
2023/07/19 01:28:45;;;;;;;;;;;;;;;30.39;40.21;100690.64;102654;1294;62198;-81
2023/07/19 01:31:11;;;;;;;;;;;;;;;30.40;40.28;100695.67;102681;1297;62254;-81
2023/07/19 01:33:37;;;;;;;;;;;;;;;30.39;40.20;100700.23;102633;1299;62139;-81
2023/07/19 01:36:03;;;;;;;;;;;;;;;30.39;40.25;100703.67;102753;1294;63246;-80
2023/07/19 01:38:28;;;;;;;;;;;;;;;30.40;40.23;100706.00;102683;1296;62211;-80
2023/07/19 01:40:53;;;;;;;;;;;;;;;30.39;40.23;100708.86;102649;1295;62141;-81
2023/07/19 01:43:19;;;;;;;;;;;;;;;30.39;40.17;100704.88;102767;1297;62737;-81
2023/07/19 01:45:45;;;;;;;;;;;;;;;30.39;40.18;100703.92;102686;1296;62107;-81
2023/07/19 01:48:11;;;;;;;;;;;;;;;30.39;40.23;100707.73;102651;1296;62747;-81
2023/07/19 01:50:36;;;;;;;;;;;;;;;30.39;40.26;100711.23;102608;1300;62191;-81
2023/07/19 01:53:02;;;;;;;;;;;;;;;30.39;40.27;100718.61;102651;1294;62624;-81
2023/07/19 01:55:27;;;;;;;;;;;;;;;30.39;40.26;100721.89;102659;1293;63351;-81
2023/07/19 01:57:53;;;;;;;;;;;;;;;30.39;40.27;100718.66;102695;1294;62297;-81
2023/07/19 02:00:18;;;;;;;;;;;;;;;30.39;40.11;100718.11;102680;1294;63496;-81
2023/07/19 02:02:44;;;;;;;;;;;;;;;30.39;40.20;100722.51;102729;1297;62205;-80
2023/07/19 02:05:09;;;;;;;;;;;;;;;30.38;40.14;100721.25;102621;1299;62808;-80
2023/07/19 02:07:35;;;;;;;;;;;;;;;30.38;40.30;100718.57;102648;1298;62319;-80
2023/07/19 02:10:00;;;;;;;;;;;;;;;30.38;40.25;100714.21;102704;1297;62174;-80
2023/07/19 02:12:25;;;;;;;;;;;;;;;30.38;40.21;100711.86;102689;1294;62221;-80
2023/07/19 02:14:54;;;;;;;;;;;;;;;30.38;40.27;100711.72;102572;1298;63421;-81
2023/07/19 02:17:19;;;;;;;;;;;;;;;30.38;40.24;100709.34;102706;1295;62303;-81
2023/07/19 02:19:45;;;;;;;;;;;;;;;30.38;40.30;100707.19;102626;1294;62538;-81
2023/07/19 02:22:10;;;;;;;;;;;;;;;30.38;40.18;100708.98;102691;1296;62235;-81
2023/07/19 02:24:36;;;;;;;;;;;;;;;30.37;40.10;100708.83;102635;1300;62236;-80
2023/07/19 02:27:01;;;;;;;;;;;;;;;30.37;40.14;100714.31;102663;1295;62208;-80
2023/07/19 02:29:27;;;;;;;;;;;;;;;30.37;40.19;100718.14;102594;1292;62212;-80
2023/07/19 02:31:53;;;;;;;;;;;;;;;30.37;40.20;100722.48;102656;1297;62227;-80
2023/07/19 02:34:20;;;;;;;;;;;;;;;30.37;40.19;100721.95;102692;1297;62208;-81
2023/07/19 02:36:46;;;;;;;;;;;;;;;30.37;40.14;100720.35;102727;1296;62295;-81
2023/07/19 02:39:11;;;;;;;;;;;;;;;30.37;40.13;100722.69;102739;1297;62211;-82
2023/07/19 02:41:37;;;;;;;;;;;;;;;30.37;40.22;100726.34;102640;1298;63527;-82
2023/07/19 02:44:02;;;;;;;;;;;;;;;30.37;40.20;100727.93;102641;1294;63482;-81
2023/07/19 02:46:29;;;;;;;;;;;;;;;30.37;40.10;100736.17;102659;1292;62095;-81
2023/07/19 02:48:54;;;;;;;;;;;;;;;30.36;40.06;100737.83;102605;1298;62217;-81
2023/07/19 02:51:20;;;;;;;;;;;;;;;30.37;40.20;100738.69;102695;1293;62274;-81
2023/07/19 02:53:46;;;;;;;;;;;;;;;30.37;40.12;100736.00;102656;1298;62283;-81
2023/07/19 02:56:11;;;;;;;;;;;;;;;30.36;40.18;100732.22;102719;1295;63371;-81
2023/07/19 02:58:37;;;;;;;;;;;;;;;30.36;40.24;100724.21;102730;1295;62196;-81
2023/07/19 03:01:02;;;;;;;;;;;;;;;30.36;40.30;100720.44;102578;1299;72896;-81
2023/07/19 03:03:29;;;;;;;;;;;;;;;30.36;40.33;100716.77;102673;1294;62275;-81
2023/07/19 03:05:54;;;;;;;;;;;;;;;30.36;40.23;100708.42;102680;1298;63367;-81
2023/07/19 03:08:20;;;;;;;;;;;;;;;30.36;40.13;100705.88;102639;1294;62210;-81
2023/07/19 03:10:45;;;;;;;;;;;;;;;30.36;40.28;100705.16;102631;1300;62221;-81
2023/07/19 03:13:11;;;;;;;;;;;;;;;30.36;40.22;100702.64;102699;1294;62222;-81
2023/07/19 03:15:36;;;;;;;;;;;;;;;30.36;40.19;100704.64;102622;1298;67744;-81
2023/07/19 03:18:02;;;;;;;;;;;;;;;30.36;40.22;100703.56;102636;1294;62296;-81
2023/07/19 03:20:28;;;;;;;;;;;;;;;30.36;40.14;100708.27;102675;1296;62363;-81
2023/07/19 03:22:54;;;;;;;;;;;;;;;30.36;40.24;100707.88;102708;1294;62381;-81
2023/07/19 03:25:20;;;;;;;;;;;;;;;30.36;40.09;100710.96;102702;1293;63411;-81
2023/07/19 03:27:45;;;;;;;;;;;;;;;30.36;40.13;100713.52;102637;1300;62211;-81
2023/07/19 03:30:11;;;;;;;;;;;;;;;30.36;40.21;100713.39;102614;1294;62134;-81
2023/07/19 03:32:36;;;;;;;;;;;;;;;30.36;40.21;100710.45;102624;1300;62305;-81
2023/07/19 03:35:02;;;;;;;;;;;;;;;30.36;40.24;100716.09;102604;1294;62259;-81
2023/07/19 03:37:28;;;;;;;;;;;;;;;30.36;40.13;100717.14;102600;1297;63416;-81
2023/07/19 03:39:54;;;;;;;;;;;;;;;30.36;40.22;100713.88;102685;1294;63247;-81
2023/07/19 03:42:19;;;;;;;;;;;;;;;30.36;40.17;100714.25;102674;1300;63493;-82
2023/07/19 03:44:44;;;;;;;;;;;;;;;30.36;40.24;100718.40;102637;1297;62239;-81
2023/07/19 03:47:10;;;;;;;;;;;;;;;30.37;40.28;100716.40;102660;1294;62291;-81
2023/07/19 03:49:36;;;;;;;;;;;;;;;30.36;40.25;100712.95;102614;1297;62675;-80
2023/07/19 03:52:01;;;;;;;;;;;;;;;30.36;40.21;100707.51;102722;1297;62290;-81
2023/07/19 03:54:26;;;;;;;;;;;;;;;30.37;40.17;100700.23;102665;1297;62571;-80
2023/07/19 03:56:52;;;;;;;;;;;;;;;30.36;40.16;100706.61;102616;1298;62118;-81
2023/07/19 03:59:18;;;;;;;;;;;;;;;30.36;40.26;100704.10;102675;1294;62216;-80
2023/07/19 04:01:43;;;;;;;;;;;;;;;30.36;40.23;100703.21;102675;1297;62296;-81
2023/07/19 04:04:09;;;;;;;;;;;;;;;30.35;40.16;100704.72;102654;1295;63262;-81
2023/07/19 04:06:34;;;;;;;;;;;;;;;30.35;40.19;100702.56;102729;1294;62198;-81
2023/07/19 04:09:00;;;;;;;;;;;;;;;30.35;40.15;100702.25;102641;1298;62170;-81
2023/07/19 04:11:27;;;;;;;;;;;;;;;30.34;40.01;100703.56;102675;1294;62214;-81
2023/07/19 04:13:52;;;;;;;;;;;;;;;30.34;40.05;100709.93;102582;1294;62218;-81
2023/07/19 04:16:18;;;;;;;;;;;;;;;30.34;40.14;100708.66;102625;1294;62291;-81
2023/07/19 04:18:44;;;;;;;;;;;;;;;30.34;40.10;100708.71;102648;1294;63593;-81
2023/07/19 04:21:09;;;;;;;;;;;;;;;30.33;40.10;100712.75;102618;1297;63331;-81
2023/07/19 04:23:35;;;;;;;;;;;;;;;30.33;40.04;100716.73;102676;1296;62131;-81
2023/07/19 04:26:00;;;;;;;;;;;;;;;30.33;39.85;100708.84;102622;1297;62294;-81
2023/07/19 04:28:26;;;;;;;;;;;;;;;30.32;39.90;100715.98;102709;1296;62218;-81
2023/07/19 04:30:51;;;;;;;;;;;;;;;30.31;40.04;100706.63;102650;1294;63133;-81
2023/07/19 04:33:17;;;;;;;;;;;;;;;30.31;39.75;100705.06;102705;1292;63340;-81
2023/07/19 04:35:42;;;;;;;;;;;;;;;30.30;39.79;100702.77;102679;1294;62232;-81
2023/07/19 04:38:08;;;;;;;;;;;;;;;30.30;39.76;100704.26;102687;1296;62203;-81
2023/07/19 04:40:34;;;;;;;;;;;;;;;30.29;39.74;100702.70;102636;1295;62218;-81
2023/07/19 04:43:00;;;;;;;;;;;;;;;30.29;39.72;100699.10;102708;1298;62250;-81
2023/07/19 04:45:25;;;;;;;;;;;;;;;30.28;39.59;100693.52;102601;1297;62138;-81
2023/07/19 04:47:51;;;;;;;;;;;;;;;30.28;39.41;100692.69;102696;1294;62239;-81
2023/07/19 04:50:16;;;;;;;;;;;;;;;30.27;39.49;100695.13;102771;1294;62210;-81
2023/07/19 04:52:44;;;;;;;;;;;;;;;30.27;39.51;100704.21;102613;1298;62336;-81
2023/07/19 04:55:09;;;;;;;;;;;;;;;30.27;39.37;100706.90;102719;1295;62224;-81
2023/07/19 04:57:35;;;;;;;;;;;;;;;30.28;39.37;100705.41;102646;1294;62216;-81
2023/07/19 05:00:01;;;;;;;;;;;;;;;30.28;39.25;100708.69;102563;1300;62250;-81
2023/07/19 05:02:27;;;;;;;;;;;;;;;30.28;39.26;100708.52;102874;1297;62203;-81
2023/07/19 05:04:53;;;;;;;;;;;;;;;30.28;39.26;100716.31;102918;1297;62582;-81
2023/07/19 05:07:19;;;;;;;;;;;;;;;30.28;39.08;100719.16;102881;1297;62197;-81
2023/07/19 05:09:44;;;;;;;;;;;;;;;30.29;39.19;100722.52;102857;1291;62342;-81
2023/07/19 05:12:09;;;;;;;;;;;;;;;30.30;39.18;100729.47;102810;1291;62176;-81
2023/07/19 05:14:35;;;;;;;;;;;;;;;30.31;39.10;100729.77;102554;1294;62876;-81
2023/07/19 05:17:00;;;;;;;;;;;;;;;30.31;39.16;100725.55;102618;1296;62273;-81
2023/07/19 05:19:26;;;;;;;;;;;;;;;30.31;39.08;100721.88;103030;1299;62393;-81
2023/07/19 05:21:51;;;;;;;;;;;;;;;30.31;38.97;100723.30;103037;1296;63705;-81
2023/07/19 05:24:17;;;;;;;;;;;;;;;30.32;39.01;100721.27;102864;1298;62902;-81
2023/07/19 05:26:44;;;;;;;;;;;;;;;30.33;38.81;100722.44;102572;1295;62381;-81
2023/07/19 05:29:10;;;;;;;;;;;;;;;30.33;38.85;100724.55;102682;1294;62263;-81
2023/07/19 05:31:35;;;;;;;;;;;;;;;30.34;38.78;100725.01;102629;1295;62857;-81
2023/07/19 05:34:01;;;;;;;;;;;;;;;30.35;38.74;100720.75;102812;1300;62225;-81
2023/07/19 05:36:26;;;;;;;;;;;;;;;30.35;38.72;100717.06;103310;1299;64862;-81
2023/07/19 05:38:52;;;;;;;;;;;;;;;30.37;38.67;100714.55;103173;1300;62193;-81
2023/07/19 05:41:17;;;;;;;;;;;;;;;30.37;38.70;100712.38;102772;1299;62304;-81
2023/07/19 05:43:43;;;;;;;;;;;;;;;30.38;38.67;100716.08;103030;1300;62239;-81
2023/07/19 05:46:08;;;;;;;;;;;;;;;30.38;38.63;100715.63;103441;1291;62202;-81
2023/07/19 05:48:34;;;;;;;;;;;;;;;30.39;38.64;100715.70;103289;1297;62410;-81
2023/07/19 05:51:00;;;;;;;;;;;;;;;30.40;38.69;100711.57;103117;1291;62267;-81
2023/07/19 05:53:25;;;;;;;;;;;;;;;30.41;38.57;100705.11;103038;1295;62229;-81
2023/07/19 05:55:52;;;;;;;;;;;;;;;30.42;38.52;100699.80;102980;1302;62212;-81
2023/07/19 05:58:18;;;;;;;;;;;;;;;30.43;38.51;100701.26;102979;1295;62117;-81
2023/07/19 06:00:44;;;;;;;;;;;;;;;30.44;38.47;100701.20;102914;1297;62284;-81
2023/07/19 06:03:10;;;;;;;;;;;;;;;30.46;38.39;100701.73;103184;1297;62958;-81
2023/07/19 06:05:35;;;;;;;;;;;;;;;30.47;38.42;100707.64;102770;1293;62203;-81
2023/07/19 06:08:00;;;;;;;;;;;;;;;30.47;38.19;100706.31;103053;1295;62191;-81
2023/07/19 06:10:26;;;;;;;;;;;;;;;30.49;38.22;100710.36;103054;1297;62176;-81
2023/07/19 06:12:51;;;;;;;;;;;;;;;30.49;38.28;100709.23;102935;1295;62240;-81
2023/07/19 06:15:17;;;;;;;;;;;;;;;30.50;38.23;100705.52;102839;1295;62248;-81
2023/07/19 06:17:42;;;;;;;;;;;;;;;30.50;38.13;100708.15;103498;1292;62134;-81
2023/07/19 06:20:10;;;;;;;;;;;;;;;30.51;38.10;100709.30;103493;1298;62140;-81
2023/07/19 06:22:36;;;;;;;;;;;;;;;30.53;38.14;100705.17;103167;1296;67274;-81
2023/07/19 06:25:01;;;;;;;;;;;;;;;30.53;38.04;100702.76;103022;1295;62255;-81
2023/07/19 06:27:27;;;;;;;;;;;;;;;30.54;38.00;100693.59;103051;1298;62214;-81
2023/07/19 06:29:52;;;;;;;;;;;;;;;30.55;38.03;100693.15;102941;1298;62283;-81
2023/07/19 06:32:17;;;;;;;;;;;;;;;30.55;37.90;100691.63;102994;1297;62543;-81
2023/07/19 06:34:45;;;;;;;;;;;;;;;30.56;37.89;100690.63;102984;1291;66790;-81
2023/07/19 06:37:10;;;;;;;;;;;;;;;30.57;37.94;100694.14;103179;1297;62184;-81
2023/07/19 06:39:35;;;;;;;;;;;;;;;30.57;37.77;100692.84;102935;1297;62203;-82
2023/07/19 06:42:02;;;;;;;;;;;;;;;30.56;37.68;100694.00;103135;1291;62152;-82
2023/07/19 06:44:27;;;;;;;;;;;;;;;30.54;37.65;100695.13;103225;1295;62608;-81
2023/07/19 06:46:53;;;;;;;;;;;;;;;30.54;37.75;100690.49;103036;1297;62794;-81
2023/07/19 06:49:23;;;;;;;;;;;;;;;30.54;37.67;100692.27;102900;1291;62236;-81
2023/07/19 06:51:48;;;;;;;;;;;;;;;30.54;37.62;100686.95;103066;1294;62308;-81
2023/07/19 06:54:14;;;;;;;;;;;;;;;30.56;37.56;100685.02;103224;1293;62118;-81
2023/07/19 06:56:51;;;;;;;;;;;;;;;30.58;37.45;100684.31;102683;1291;599933;-80
2023/07/19 06:59:17;;;;;;;;;;;;;;;30.57;37.55;100685.01;102717;1298;59396;-80
2023/07/19 07:01:43;;;;;;;;;;;;;;;30.58;37.51;100685.13;102809;1299;60532;-80
2023/07/19 07:04:09;;;;;;;;;;;;;;;30.59;37.60;100691.39;102797;1298;59376;-81
2023/07/19 07:06:34;;;;;;;;;;;;;;;30.59;37.50;100686.21;102863;1294;60113;-81
2023/07/19 07:09:00;;;;;;;;;;;;;;;30.60;37.43;100684.17;102991;1294;64043;-81
2023/07/19 07:11:25;;;;;;;;;;;;;;;30.61;37.47;100687.76;102701;1292;627667;-81
2023/07/19 07:13:50;;;;;;;;;;;;;;;30.60;37.42;100682.51;102865;1293;61743;-81
2023/07/19 07:16:16;;;;;;;;;;;;;;;30.59;37.30;100684.61;102829;1291;60046;-81
2023/07/19 07:18:41;;;;;;;;;;;;;;;30.58;37.22;100682.73;103259;1297;59433;-81
2023/07/19 07:21:07;;;;;;;;;;;;;;;30.58;37.36;100686.77;103241;1297;59736;-81
2023/07/19 07:23:32;;;;;;;;;;;;;;;30.58;37.33;100687.96;103162;1295;60742;-81
2023/07/19 07:25:59;;;;;;;;;;;;;;;30.58;37.28;100684.92;103390;1294;60280;-81
2023/07/19 07:28:24;;;;;;;;;;;;;;;30.58;37.24;100682.00;103281;1296;59697;-81
2023/07/19 07:30:50;;;;;;;;;;;;;;;30.58;37.30;100677.06;103237;1297;59829;-81
2023/07/19 07:33:16;;;;;;;;;;;;;;;30.57;37.35;100672.83;103078;1297;59771;-81
2023/07/19 07:35:41;;;;;;;;;;;;;;;30.57;37.28;100675.70;103056;1291;65987;-81
2023/07/19 07:38:07;;;;;;;;;;;;;;;30.58;37.25;100668.79;103566;1296;59698;-81
2023/07/19 07:40:34;;;;;;;;;;;;;;;30.57;37.32;100675.54;103593;1291;59870;-81
2023/07/19 07:42:59;;;;;;;;;;;;;;;30.57;37.30;100673.02;103553;1295;60803;-81
2023/07/19 07:45:25;;;;;;;;;;;;;;;30.58;37.36;100675.52;103629;1295;60941;-81
2023/07/19 07:47:51;;;;;;;;;;;;;;;30.57;37.21;100672.89;103718;1294;59688;-81
2023/07/19 07:50:19;;;;;;;;;;;;;;;30.57;37.25;100674.16;103527;1295;59763;-81
2023/07/19 07:52:45;;;;;;;;;;;;;;;30.57;37.29;100670.84;103346;1291;60449;-81
2023/07/19 07:55:11;;;;;;;;;;;;;;;30.58;37.35;100672.92;103540;1296;59796;-81
2023/07/19 07:57:37;;;;;;;;;;;;;;;30.59;37.29;100671.38;103013;1295;59769;-81
2023/07/19 08:00:06;;;;;;;;;;;;;;;30.61;37.26;100673.05;103093;1292;59736;-81
2023/07/19 08:02:31;;;;;;;;;;;;;;;30.61;37.17;100668.83;103185;1292;59830;-81
2023/07/19 08:04:57;;;;;;;;;;;;;;;30.62;37.23;100671.27;103359;1291;59722;-82
2023/07/19 08:07:25;;;;;;;;;;;;;;;30.62;37.14;100666.77;102951;1297;60925;-81
2023/07/19 08:09:54;;;;;;;;;;;;;;;30.60;37.17;100660.73;103222;1291;61883;-81
2023/07/19 08:12:20;;;;;;;;;;;;;;;30.61;37.10;100655.98;103094;1291;60464;-81
2023/07/19 08:14:45;;;;;;;;;;;;;;;30.62;37.20;100658.22;103566;1294;59759;-81
2023/07/19 08:17:11;;;;;;;;;;;;;;;30.61;37.18;100652.61;103159;1296;59672;-81
2023/07/19 08:19:36;;;;;;;;;;;;;;;30.61;37.05;100650.45;103182;1291;59878;-81
2023/07/19 08:22:03;;;;;;;;;;;;;;;30.61;37.12;100649.60;103250;1297;59799;-81
2023/07/19 08:24:28;;;;;;;;;;;;;;;30.60;37.02;100653.46;103130;1293;59774;-81
2023/07/19 08:26:53;;;;;;;;;;;;;;;30.61;37.01;100649.44;103262;1297;59949;-81
2023/07/19 08:29:19;;;;;;;;;;;;;;;30.62;37.16;100642.05;103080;1295;60086;-81
2023/07/19 08:31:44;;;;;;;;;;;;;;;30.62;37.17;100638.07;103128;1292;59849;-82
2023/07/19 08:34:10;;;;;;;;;;;;;;;30.63;37.12;100636.33;103128;1292;59782;-82
2023/07/19 08:36:36;;;;;;;;;;;;;;;30.63;37.08;100636.66;103277;1291;59770;-82
2023/07/19 08:39:01;;;;;;;;;;;;;;;30.62;37.05;100638.50;102969;1292;59706;-82
2023/07/19 08:41:27;;;;;;;;;;;;;;;30.62;37.08;100636.73;102926;1297;59889;-81
2023/07/19 08:43:53;;;;;;;;;;;;;;;30.62;37.01;100640.89;103491;1291;61913;-82
2023/07/19 08:46:18;;;;;;;;;;;;;;;30.63;37.01;100636.80;103022;1296;59915;-81
2023/07/19 08:48:45;;;;;;;;;;;;;;;30.63;36.99;100636.39;103398;1297;59775;-81
2023/07/19 08:51:10;;;;;;;;;;;;;;;30.64;36.99;100633.26;103451;1291;64851;-81
2023/07/19 08:53:36;;;;;;;;;;;;;;;30.64;37.05;100631.99;103245;1293;60303;-81
2023/07/19 08:56:01;;;;;;;;;;;;;;;30.64;36.89;100630.52;103364;1294;60612;-81
2023/07/19 08:58:27;;;;;;;;;;;;;;;30.63;36.80;100626.65;103535;1289;59804;-81
2023/07/19 09:00:52;;;;;;;;;;;;;;;30.62;36.64;100617.45;103364;1288;60122;-81
2023/07/19 09:03:18;;;;;;;;;;;;;;;30.63;36.75;100615.63;103329;1288;61163;-81
2023/07/19 09:05:46;;;;;;;;;;;;;;;30.63;36.57;100614.30;103736;1292;61020;-81
2023/07/19 09:08:15;;;;;;;;;;;;;;;30.64;36.60;100608.61;103259;1290;60700;-81
2023/07/19 09:10:44;;;;;;;;;;;;;;;30.64;36.59;100601.77;103431;1289;60547;-81
2023/07/19 09:13:11;;;;;;;;;;;;;;;30.65;36.52;100595.21;103163;1292;64705;-81
2023/07/19 09:15:36;;;;;;;;;;;;;;;30.65;36.57;100588.23;104034;1288;64893;-81
2023/07/19 09:18:04;;;;;;;;;;;;;;;30.67;36.61;100587.00;103759;1288;59772;-81
2023/07/19 09:20:29;;;;;;;;;;;;;;;30.67;36.42;100589.89;103652;1288;59696;-81
2023/07/19 09:22:56;;;;;;;;;;;;;;;30.67;36.42;100587.33;103445;1292;59695;-81
2023/07/19 09:25:21;;;;;;;;;;;;;;;30.68;36.17;100591.52;103757;1289;59765;-81
2023/07/19 09:27:47;;;;;;;;;;;;;;;30.73;36.03;100582.59;103561;1293;59824;-82
2023/07/19 09:30:12;;;;;;;;;;;;;;;30.74;36.06;100581.33;103230;1288;59701;-82
2023/07/19 09:32:38;;;;;;;;;;;;;;;30.77;35.73;100576.48;103508;1288;59827;-82
2023/07/19 09:35:04;;;;;;;;;;;;;;;30.80;35.43;100574.04;103110;1291;63787;-82
2023/07/19 09:37:30;;;;;;;;;;;;;;;30.80;35.54;100571.15;103166;1288;59821;-81
2023/07/19 09:39:55;;;;;;;;;;;;;;;30.79;35.49;100572.95;103214;1288;60113;-82
2023/07/19 09:42:21;;;;;;;;;;;;;;;30.79;35.64;100566.11;103218;1293;60036;-82
2023/07/19 09:44:46;;;;;;;;;;;;;;;30.78;35.49;100562.95;103514;1290;59737;-82
2023/07/19 09:47:12;;;;;;;;;;;;;;;30.78;35.36;100554.81;103709;1294;60331;-82
2023/07/19 09:49:37;;;;;;;;;;;;;;;30.78;35.41;100554.64;103575;1290;65249;-82
2023/07/19 09:52:03;;;;;;;;;;;;;;;30.78;35.42;100554.93;103768;1292;59801;-82
2023/07/19 09:54:30;;;;;;;;;;;;;;;30.79;35.51;100552.70;103728;1290;60533;-82
2023/07/19 09:56:56;;;;;;;;;;;;;;;30.79;35.52;100553.41;103845;1288;59793;-81
2023/07/19 09:59:29;;;;;;;;;;;;;;;30.79;35.43;100548.88;103402;1290;59744;-81
2023/07/19 10:01:55;;;;;;;;;;;;;;;30.79;35.40;100546.33;103571;1288;59711;-81
2023/07/19 10:04:24;;;;;;;;;;;;;;;30.79;35.56;100546.91;103590;1288;59743;-82
2023/07/19 10:07:02;;;;;;;;;;;;;;;30.78;35.54;100545.85;103284;1288;64943;-82
2023/07/19 10:09:32;;;;;;;;;;;;;;;30.79;35.62;100538.31;103448;1289;64235;-81
2023/07/19 10:12:01;;;;;;;;;;;;;;;30.79;35.55;100535.38;103323;1294;59878;-82
2023/07/19 10:14:27;;;;;;;;;;;;;;;30.79;35.63;100530.02;103607;1288;59679;-82
2023/07/19 10:16:57;;;;;;;;;;;;;;;30.79;35.69;100526.58;103426;1292;59759;-82
2023/07/19 10:19:23;;;;;;;;;;;;;;;30.79;35.61;100523.30;103284;1292;64025;-82
2023/07/19 10:22:05;;;;;;;;;;;;;;;30.78;35.62;100524.92;103438;1289;60839;-81
2023/07/19 10:24:31;;;;;;;;;;;;;;;30.78;35.44;100519.15;103855;1288;62004;-82
2023/07/19 10:26:59;;;;;;;;;;;;;;;30.79;35.47;100520.38;103551;1290;59800;-82
2023/07/19 10:29:25;;;;;;;;;;;;;;;30.79;35.55;100514.39;103752;1288;65192;-82
2023/07/19 10:31:50;;;;;;;;;;;;;;;30.79;35.62;100506.55;103878;1288;59684;-82
2023/07/19 10:34:25;;;;;;;;;;;;;;;30.79;35.53;100504.36;103756;1288;59869;-82
2023/07/19 10:36:50;;;;;;;;;;;;;;;30.80;35.43;100499.52;103684;1288;64882;-82
2023/07/19 10:39:16;;;;;;;;;;;;;;;30.81;35.31;100498.42;103628;1288;60480;-82
2023/07/19 10:41:41;;;;;;;;;;;;;;;30.83;35.17;100495.20;103662;1288;59799;-81
2023/07/19 10:44:07;;;;;;;;;;;;;;;30.83;35.26;100489.52;103775;1288;59661;-81
2023/07/19 10:46:32;;;;;;;;;;;;;;;30.84;35.08;100487.05;103653;1292;59753;-82
2023/07/19 10:48:58;;;;;;;;;;;;;;;30.84;35.17;100485.59;103658;1288;59705;-81
2023/07/19 10:51:24;;;;;;;;;;;;;;;30.85;35.10;100484.23;103640;1290;59804;-82
2023/07/19 10:53:56;;;;;;;;;;;;;;;30.87;35.04;100478.92;103677;1288;60818;-81
2023/07/19 10:56:22;;;;;;;;;;;;;;;30.88;34.89;100473.43;103880;1288;60493;-81
2023/07/19 10:58:47;;;;;;;;;;;;;;;30.89;34.67;100473.86;103541;1288;59836;-81
2023/07/19 11:01:13;;;;;;;;;;;;;;;30.90;34.68;100472.86;103697;1288;60530;-82
2023/07/19 11:03:39;;;;;;;;;;;;;;;30.91;34.69;100470.03;103339;1292;61694;-82
2023/07/19 11:06:06;;;;;;;;;;;;;;;30.92;34.56;100466.81;103208;1288;60546;-82
2023/07/19 11:08:32;;;;;;;;;;;;;;;30.92;34.67;100466.24;103346;1288;60460;-82
2023/07/19 11:10:57;;;;;;;;;;;;;;;30.91;34.74;100465.09;103196;1288;60579;-82
2023/07/19 11:13:23;;;;;;;;;;;;;;;30.90;34.85;100460.47;103266;1292;60577;-83
2023/07/19 11:15:50;;;;;;;;;;;;;;;30.90;34.95;100460.54;103240;1290;61219;-82
2023/07/19 11:18:23;;;;;;;;;;;;;;;30.89;35.00;100456.62;103383;1289;60657;-82
2023/07/19 11:20:49;;;;;;;;;;;;;;;30.88;35.08;100449.82;106361;1288;63981;-83
2023/07/19 11:23:14;;;;;;;;;;;;;;;30.87;35.13;100445.02;104556;1292;60492;-83
2023/07/19 11:25:40;;;;;;;;;;;;;;;30.87;35.18;100440.54;103546;1288;60584;-83
2023/07/19 11:28:06;;;;;;;;;;;;;;;30.87;35.22;100434.16;103525;1289;60563;-82
2023/07/19 11:30:38;;;;;;;;;;;;;;;30.87;35.33;100432.52;103421;1290;60594;-82
2023/07/19 11:33:04;;;;;;;;;;;;;;;30.87;35.29;100421.87;103465;1291;65976;-82
2023/07/19 11:35:29;;;;;;;;;;;;;;;30.86;35.42;100422.48;103481;1291;60559;-82
2023/07/19 11:37:55;;;;;;;;;;;;;;;30.85;35.32;100420.17;103385;1288;60589;-82
2023/07/19 11:40:22;;;;;;;;;;;;;;;30.85;35.34;100416.23;103407;1288;60586;-82
2023/07/19 11:42:49;;;;;;;;;;;;;;;30.85;35.27;100410.79;103294;1292;60620;-82
2023/07/19 11:45:21;;;;;;;;;;;;;;;30.85;35.26;100411.70;103120;1288;60495;-82
2023/07/19 11:47:48;;;;;;;;;;;;;;;30.85;35.44;100409.86;103307;1291;60572;-84
2023/07/19 11:50:14;;;;;;;;;;;;;;;30.85;35.33;100403.20;103248;1289;61742;-83
2023/07/19 11:52:47;;;;;;;;;;;;;;;30.84;35.24;100399.41;103375;1293;60600;-82
2023/07/19 11:55:17;;;;;;;;;;;;;;;30.84;35.35;100388.89;103213;1289;64823;-83
2023/07/19 11:57:42;;;;;;;;;;;;;;;30.84;35.44;100387.67;103380;1289;61050;-82
2023/07/19 12:00:09;;;;;;;;;;;;;;;30.84;35.47;100389.17;103237;1290;60673;-82
2023/07/19 12:02:35;;;;;;;;;;;;;;;30.83;35.43;100384.46;103225;1294;60572;-83
2023/07/19 12:05:03;;;;;;;;;;;;;;;30.83;35.39;100377.05;103408;1288;60580;-82
2023/07/19 12:07:29;;;;;;;;;;;;;;;30.83;35.44;100374.35;106090;1290;58421;-82
2023/07/19 12:09:55;;;;;;;;;;;;;;;30.83;35.48;100372.92;103470;1291;60564;-82
2023/07/19 12:12:20;;;;;;;;;;;;;;;30.84;35.46;100370.81;103275;1289;60559;-82
2023/07/19 12:14:46;;;;;;;;;;;;;;;30.84;35.46;100370.22;103296;1288;60598;-82
2023/07/19 12:17:11;;;;;;;;;;;;;;;30.84;35.42;100367.45;103084;1288;60607;-82
2023/07/19 12:19:36;;;;;;;;;;;;;;;30.84;35.42;100370.36;103603;1289;61064;-83